sensor_id;sensor_type;location;lat;lon;timestamp;P1;durP1;ratioP1;P2;durP2;ratioP2
6452;SDS011;3259;51.080;13.712;2023-07-31T00:02:44;2.75;;;0.57;;
6452;SDS011;3259;51.080;13.712;2023-07-31T00:05:33;1.08;;;0.45;;
6452;SDS011;3259;51.080;13.712;2023-07-31T00:08:22;1.30;;;0.80;;
6452;SDS011;3259;51.080;13.712;2023-07-31T00:11:13;0.80;;;0.80;;
6452;SDS011;3259;51.080;13.712;2023-07-31T00:14:04;1.63;;;1.08;;
6452;SDS011;3259;51.080;13.712;2023-07-31T00:16:55;0.50;;;0.50;;
6452;SDS011;3259;51.080;13.712;2023-07-31T00:19:48;1.70;;;0.60;;
6452;SDS011;3259;51.080;13.712;2023-07-31T00:22:39;1.17;;;0.70;;
6452;SDS011;3259;51.080;13.712;2023-07-31T00:25:31;0.75;;;0.30;;
6452;SDS011;3259;51.080;13.712;2023-07-31T00:28:20;1.33;;;0.75;;
6452;SDS011;3259;51.080;13.712;2023-07-31T00:31:11;1.00;;;0.80;;
6452;SDS011;3259;51.080;13.712;2023-07-31T00:34:02;1.80;;;0.45;;
6452;SDS011;3259;51.080;13.712;2023-07-31T00:36:55;1.73;;;0.57;;
6452;SDS011;3259;51.080;13.712;2023-07-31T00:39:47;1.15;;;0.63;;
6452;SDS011;3259;51.080;13.712;2023-07-31T00:42:37;3.13;;;0.60;;
6452;SDS011;3259;51.080;13.712;2023-07-31T00:45:26;1.92;;;0.77;;
6452;SDS011;3259;51.080;13.712;2023-07-31T00:48:16;2.88;;;0.60;;
6452;SDS011;3259;51.080;13.712;2023-07-31T00:51:08;1.48;;;0.88;;
6452;SDS011;3259;51.080;13.712;2023-07-31T00:54:05;1.95;;;0.68;;
6452;SDS011;3259;51.080;13.712;2023-07-31T00:56:54;1.58;;;0.70;;
6452;SDS011;3259;51.080;13.712;2023-07-31T00:59:45;1.35;;;0.40;;
6452;SDS011;3259;51.080;13.712;2023-07-31T01:02:35;2.05;;;0.80;;
6452;SDS011;3259;51.080;13.712;2023-07-31T01:05:36;1.95;;;0.73;;
6452;SDS011;3259;51.080;13.712;2023-07-31T01:08:37;3.05;;;0.50;;
6452;SDS011;3259;51.080;13.712;2023-07-31T01:11:38;1.58;;;0.52;;
6452;SDS011;3259;51.080;13.712;2023-07-31T01:14:33;1.80;;;0.70;;
6452;SDS011;3259;51.080;13.712;2023-07-31T01:17:22;3.33;;;0.95;;
6452;SDS011;3259;51.080;13.712;2023-07-31T01:20:13;5.00;;;0.63;;
6452;SDS011;3259;51.080;13.712;2023-07-31T01:23:22;1.15;;;0.73;;
6452;SDS011;3259;51.080;13.712;2023-07-31T01:26:32;0.63;;;0.63;;
6452;SDS011;3259;51.080;13.712;2023-07-31T01:29:31;1.80;;;0.70;;
6452;SDS011;3259;51.080;13.712;2023-07-31T01:32:29;0.82;;;0.57;;
6452;SDS011;3259;51.080;13.712;2023-07-31T01:35:21;1.30;;;0.65;;
6452;SDS011;3259;51.080;13.712;2023-07-31T01:38:14;1.45;;;0.60;;
6452;SDS011;3259;51.080;13.712;2023-07-31T01:41:03;1.30;;;0.93;;
6452;SDS011;3259;51.080;13.712;2023-07-31T01:43:54;3.50;;;0.75;;
6452;SDS011;3259;51.080;13.712;2023-07-31T01:46:43;2.60;;;0.85;;
6452;SDS011;3259;51.080;13.712;2023-07-31T01:49:36;1.08;;;0.80;;
6452;SDS011;3259;51.080;13.712;2023-07-31T01:52:25;1.98;;;0.80;;
6452;SDS011;3259;51.080;13.712;2023-07-31T01:55:23;7.03;;;0.80;;
6452;SDS011;3259;51.080;13.712;2023-07-31T01:58:16;0.35;;;0.35;;
6452;SDS011;3259;51.080;13.712;2023-07-31T02:01:08;2.40;;;0.60;;
6452;SDS011;3259;51.080;13.712;2023-07-31T02:03:57;1.67;;;0.88;;
6452;SDS011;3259;51.080;13.712;2023-07-31T02:06:49;2.22;;;0.50;;
6452;SDS011;3259;51.080;13.712;2023-07-31T02:09:41;2.53;;;0.90;;
6452;SDS011;3259;51.080;13.712;2023-07-31T02:12:33;2.53;;;0.80;;
6452;SDS011;3259;51.080;13.712;2023-07-31T02:15:23;1.70;;;1.23;;
6452;SDS011;3259;51.080;13.712;2023-07-31T02:18:16;2.95;;;0.80;;
6452;SDS011;3259;51.080;13.712;2023-07-31T02:21:05;1.42;;;0.90;;
6452;SDS011;3259;51.080;13.712;2023-07-31T02:23:57;1.90;;;1.00;;
6452;SDS011;3259;51.080;13.712;2023-07-31T02:26:46;1.63;;;1.05;;
6452;SDS011;3259;51.080;13.712;2023-07-31T02:29:35;0.98;;;0.63;;
6452;SDS011;3259;51.080;13.712;2023-07-31T02:32:33;1.25;;;0.60;;
6452;SDS011;3259;51.080;13.712;2023-07-31T02:35:26;1.30;;;1.10;;
6452;SDS011;3259;51.080;13.712;2023-07-31T02:38:18;2.83;;;1.00;;
6452;SDS011;3259;51.080;13.712;2023-07-31T02:41:10;2.70;;;0.73;;
6452;SDS011;3259;51.080;13.712;2023-07-31T02:44:03;2.25;;;0.80;;
6452;SDS011;3259;51.080;13.712;2023-07-31T02:46:53;0.85;;;0.65;;
6452;SDS011;3259;51.080;13.712;2023-07-31T02:49:44;1.30;;;0.60;;
6452;SDS011;3259;51.080;13.712;2023-07-31T02:52:35;1.77;;;0.90;;
6452;SDS011;3259;51.080;13.712;2023-07-31T02:55:26;3.30;;;0.95;;
6452;SDS011;3259;51.080;13.712;2023-07-31T02:58:16;0.68;;;0.50;;
6452;SDS011;3259;51.080;13.712;2023-07-31T03:01:06;0.60;;;0.60;;
6452;SDS011;3259;51.080;13.712;2023-07-31T03:04:00;1.67;;;0.60;;
6452;SDS011;3259;51.080;13.712;2023-07-31T03:06:52;1.77;;;0.88;;
6452;SDS011;3259;51.080;13.712;2023-07-31T03:09:44;1.88;;;0.68;;
6452;SDS011;3259;51.080;13.712;2023-07-31T03:12:37;2.55;;;1.05;;
6452;SDS011;3259;51.080;13.712;2023-07-31T03:15:31;1.52;;;0.70;;
6452;SDS011;3259;51.080;13.712;2023-07-31T03:18:24;2.45;;;1.08;;
6452;SDS011;3259;51.080;13.712;2023-07-31T03:21:14;1.55;;;0.70;;
6452;SDS011;3259;51.080;13.712;2023-07-31T03:24:05;4.53;;;0.57;;
6452;SDS011;3259;51.080;13.712;2023-07-31T03:26:57;1.90;;;0.43;;
6452;SDS011;3259;51.080;13.712;2023-07-31T03:29:47;1.27;;;0.65;;
6452;SDS011;3259;51.080;13.712;2023-07-31T03:32:39;3.55;;;0.98;;
6452;SDS011;3259;51.080;13.712;2023-07-31T03:35:29;3.63;;;0.60;;
6452;SDS011;3259;51.080;13.712;2023-07-31T03:38:21;1.40;;;0.57;;
6452;SDS011;3259;51.080;13.712;2023-07-31T03:41:13;2.40;;;0.90;;
6452;SDS011;3259;51.080;13.712;2023-07-31T03:44:08;1.48;;;0.52;;
6452;SDS011;3259;51.080;13.712;2023-07-31T03:46:58;1.60;;;0.80;;
6452;SDS011;3259;51.080;13.712;2023-07-31T03:49:51;1.48;;;0.60;;
6452;SDS011;3259;51.080;13.712;2023-07-31T03:52:42;1.15;;;0.73;;
6452;SDS011;3259;51.080;13.712;2023-07-31T03:55:31;2.65;;;0.60;;
6452;SDS011;3259;51.080;13.712;2023-07-31T03:58:20;4.30;;;0.57;;
6452;SDS011;3259;51.080;13.712;2023-07-31T04:01:12;1.55;;;0.68;;
6452;SDS011;3259;51.080;13.712;2023-07-31T04:04:02;2.03;;;0.60;;
6452;SDS011;3259;51.080;13.712;2023-07-31T04:06:53;3.08;;;1.00;;
6452;SDS011;3259;51.080;13.712;2023-07-31T04:09:43;1.58;;;0.70;;
6452;SDS011;3259;51.080;13.712;2023-07-31T04:12:32;3.42;;;0.63;;
6452;SDS011;3259;51.080;13.712;2023-07-31T04:15:22;2.58;;;0.95;;
6452;SDS011;3259;51.080;13.712;2023-07-31T04:18:15;2.40;;;0.90;;
6452;SDS011;3259;51.080;13.712;2023-07-31T04:21:04;0.52;;;0.50;;
6452;SDS011;3259;51.080;13.712;2023-07-31T04:23:53;2.70;;;0.70;;
6452;SDS011;3259;51.080;13.712;2023-07-31T04:26:47;1.20;;;0.70;;
6452;SDS011;3259;51.080;13.712;2023-07-31T04:29:40;2.38;;;0.85;;
6452;SDS011;3259;51.080;13.712;2023-07-31T04:32:35;2.03;;;0.98;;
6452;SDS011;3259;51.080;13.712;2023-07-31T04:35:31;3.13;;;1.10;;
6452;SDS011;3259;51.080;13.712;2023-07-31T04:38:21;1.92;;;0.82;;
6452;SDS011;3259;51.080;13.712;2023-07-31T04:41:13;4.13;;;0.73;;
6452;SDS011;3259;51.080;13.712;2023-07-31T04:44:02;1.38;;;0.77;;
6452;SDS011;3259;51.080;13.712;2023-07-31T04:46:51;2.15;;;0.73;;
6452;SDS011;3259;51.080;13.712;2023-07-31T04:49:41;3.45;;;0.80;;
6452;SDS011;3259;51.080;13.712;2023-07-31T04:52:32;3.00;;;0.98;;
6452;SDS011;3259;51.080;13.712;2023-07-31T04:55:21;6.65;;;0.95;;
6452;SDS011;3259;51.080;13.712;2023-07-31T04:58:13;0.90;;;0.50;;
6452;SDS011;3259;51.080;13.712;2023-07-31T05:01:02;0.55;;;0.43;;
6452;SDS011;3259;51.080;13.712;2023-07-31T05:03:51;4.65;;;1.15;;
6452;SDS011;3259;51.080;13.712;2023-07-31T05:06:41;0.93;;;0.50;;
6452;SDS011;3259;51.080;13.712;2023-07-31T05:09:32;2.90;;;1.20;;
6452;SDS011;3259;51.080;13.712;2023-07-31T05:12:22;4.10;;;0.90;;
6452;SDS011;3259;51.080;13.712;2023-07-31T05:15:11;1.95;;;0.70;;
6452;SDS011;3259;51.080;13.712;2023-07-31T05:18:02;2.60;;;0.88;;
6452;SDS011;3259;51.080;13.712;2023-07-31T05:20:52;1.33;;;0.80;;
6452;SDS011;3259;51.080;13.712;2023-07-31T05:23:42;3.40;;;1.23;;
6452;SDS011;3259;51.080;13.712;2023-07-31T05:26:34;13.05;;;1.90;;
6452;SDS011;3259;51.080;13.712;2023-07-31T05:29:27;4.75;;;1.00;;
6452;SDS011;3259;51.080;13.712;2023-07-31T05:32:16;2.53;;;0.82;;
6452;SDS011;3259;51.080;13.712;2023-07-31T05:35:06;5.43;;;1.52;;
6452;SDS011;3259;51.080;13.712;2023-07-31T05:37:56;5.47;;;1.60;;
6452;SDS011;3259;51.080;13.712;2023-07-31T05:40:47;2.60;;;1.13;;
6452;SDS011;3259;51.080;13.712;2023-07-31T05:43:39;3.28;;;1.27;;
6452;SDS011;3259;51.080;13.712;2023-07-31T05:46:29;5.80;;;1.08;;
6452;SDS011;3259;51.080;13.712;2023-07-31T05:49:19;1.23;;;0.88;;
6452;SDS011;3259;51.080;13.712;2023-07-31T05:52:08;5.05;;;0.93;;
6452;SDS011;3259;51.080;13.712;2023-07-31T05:54:57;5.90;;;1.00;;
6452;SDS011;3259;51.080;13.712;2023-07-31T05:57:47;1.90;;;0.73;;
6452;SDS011;3259;51.080;13.712;2023-07-31T06:00:39;2.22;;;0.75;;
6452;SDS011;3259;51.080;13.712;2023-07-31T06:03:28;3.35;;;0.93;;
6452;SDS011;3259;51.080;13.712;2023-07-31T06:06:17;2.83;;;0.77;;
6452;SDS011;3259;51.080;13.712;2023-07-31T06:09:06;2.65;;;0.80;;
6452;SDS011;3259;51.080;13.712;2023-07-31T06:11:58;1.95;;;0.73;;
6452;SDS011;3259;51.080;13.712;2023-07-31T06:14:47;1.83;;;0.82;;
6452;SDS011;3259;51.080;13.712;2023-07-31T06:17:38;2.35;;;0.60;;
6452;SDS011;3259;51.080;13.712;2023-07-31T06:20:27;1.48;;;1.10;;
6452;SDS011;3259;51.080;13.712;2023-07-31T06:23:17;3.28;;;0.93;;
6452;SDS011;3259;51.080;13.712;2023-07-31T06:26:08;1.65;;;0.70;;
6452;SDS011;3259;51.080;13.712;2023-07-31T06:28:57;1.35;;;0.85;;
6452;SDS011;3259;51.080;13.712;2023-07-31T06:31:46;5.22;;;0.95;;
6452;SDS011;3259;51.080;13.712;2023-07-31T06:34:37;2.95;;;1.00;;
6452;SDS011;3259;51.080;13.712;2023-07-31T06:37:26;4.60;;;1.10;;
6452;SDS011;3259;51.080;13.712;2023-07-31T06:40:16;1.85;;;0.65;;
6452;SDS011;3259;51.080;13.712;2023-07-31T06:43:05;2.53;;;1.20;;
6452;SDS011;3259;51.080;13.712;2023-07-31T06:45:55;1.85;;;1.13;;
6452;SDS011;3259;51.080;13.712;2023-07-31T06:48:44;2.75;;;1.00;;
6452;SDS011;3259;51.080;13.712;2023-07-31T06:51:34;2.15;;;0.98;;
6452;SDS011;3259;51.080;13.712;2023-07-31T06:54:25;3.13;;;0.90;;
6452;SDS011;3259;51.080;13.712;2023-07-31T06:57:13;3.05;;;0.73;;
6452;SDS011;3259;51.080;13.712;2023-07-31T07:00:02;3.03;;;1.10;;
6452;SDS011;3259;51.080;13.712;2023-07-31T07:02:51;3.05;;;0.95;;
6452;SDS011;3259;51.080;13.712;2023-07-31T07:05:40;2.35;;;1.25;;
6452;SDS011;3259;51.080;13.712;2023-07-31T07:08:30;3.65;;;1.15;;
6452;SDS011;3259;51.080;13.712;2023-07-31T07:11:19;2.78;;;0.98;;
6452;SDS011;3259;51.080;13.712;2023-07-31T07:14:09;1.27;;;1.08;;
6452;SDS011;3259;51.080;13.712;2023-07-31T07:17:00;2.72;;;1.27;;
6452;SDS011;3259;51.080;13.712;2023-07-31T07:19:51;1.92;;;1.02;;
6452;SDS011;3259;51.080;13.712;2023-07-31T07:22:41;1.23;;;1.00;;
6452;SDS011;3259;51.080;13.712;2023-07-31T07:25:35;2.80;;;0.60;;
6452;SDS011;3259;51.080;13.712;2023-07-31T07:28:26;2.25;;;1.20;;
6452;SDS011;3259;51.080;13.712;2023-07-31T07:31:16;3.55;;;1.05;;
6452;SDS011;3259;51.080;13.712;2023-07-31T07:34:06;1.58;;;1.00;;
6452;SDS011;3259;51.080;13.712;2023-07-31T07:36:56;3.65;;;1.10;;
6452;SDS011;3259;51.080;13.712;2023-07-31T07:39:46;0.82;;;0.82;;
6452;SDS011;3259;51.080;13.712;2023-07-31T07:42:38;1.65;;;0.95;;
6452;SDS011;3259;51.080;13.712;2023-07-31T07:45:30;1.38;;;1.02;;
6452;SDS011;3259;51.080;13.712;2023-07-31T07:48:19;1.50;;;0.88;;
6452;SDS011;3259;51.080;13.712;2023-07-31T07:51:08;2.53;;;1.00;;
6452;SDS011;3259;51.080;13.712;2023-07-31T07:53:56;4.28;;;0.90;;
6452;SDS011;3259;51.080;13.712;2023-07-31T07:56:45;1.05;;;0.73;;
6452;SDS011;3259;51.080;13.712;2023-07-31T07:59:36;1.58;;;0.80;;
6452;SDS011;3259;51.080;13.712;2023-07-31T08:02:27;1.05;;;0.77;;
6452;SDS011;3259;51.080;13.712;2023-07-31T08:05:16;2.17;;;0.95;;
6452;SDS011;3259;51.080;13.712;2023-07-31T08:08:05;2.92;;;1.40;;
6452;SDS011;3259;51.080;13.712;2023-07-31T08:10:53;2.70;;;1.08;;
6452;SDS011;3259;51.080;13.712;2023-07-31T08:13:42;2.25;;;1.23;;
6452;SDS011;3259;51.080;13.712;2023-07-31T08:16:32;2.80;;;1.58;;
6452;SDS011;3259;51.080;13.712;2023-07-31T08:19:21;2.78;;;1.30;;
6452;SDS011;3259;51.080;13.712;2023-07-31T08:22:10;1.88;;;1.17;;
6452;SDS011;3259;51.080;13.712;2023-07-31T08:24:59;1.75;;;1.08;;
6452;SDS011;3259;51.080;13.712;2023-07-31T08:27:48;1.33;;;0.75;;
6452;SDS011;3259;51.080;13.712;2023-07-31T08:30:39;2.60;;;1.10;;
6452;SDS011;3259;51.080;13.712;2023-07-31T08:33:29;3.55;;;1.00;;
6452;SDS011;3259;51.080;13.712;2023-07-31T08:36:18;2.10;;;1.05;;
6452;SDS011;3259;51.080;13.712;2023-07-31T08:39:07;4.93;;;1.65;;
6452;SDS011;3259;51.080;13.712;2023-07-31T08:41:57;2.22;;;1.13;;
6452;SDS011;3259;51.080;13.712;2023-07-31T08:44:47;2.33;;;1.15;;
6452;SDS011;3259;51.080;13.712;2023-07-31T08:47:38;3.47;;;1.50;;
6452;SDS011;3259;51.080;13.712;2023-07-31T08:50:30;2.85;;;0.98;;
6452;SDS011;3259;51.080;13.712;2023-07-31T08:53:19;2.35;;;0.88;;
6452;SDS011;3259;51.080;13.712;2023-07-31T08:56:08;1.52;;;0.98;;
6452;SDS011;3259;51.080;13.712;2023-07-31T08:59:01;4.80;;;1.48;;
6452;SDS011;3259;51.080;13.712;2023-07-31T09:01:53;2.33;;;1.48;;
6452;SDS011;3259;51.080;13.712;2023-07-31T09:04:44;1.50;;;1.40;;
6452;SDS011;3259;51.080;13.712;2023-07-31T09:07:34;1.77;;;1.20;;
6452;SDS011;3259;51.080;13.712;2023-07-31T09:10:23;4.68;;;1.38;;
6452;SDS011;3259;51.080;13.712;2023-07-31T09:13:13;2.08;;;1.33;;
6452;SDS011;3259;51.080;13.712;2023-07-31T09:16:02;1.98;;;1.13;;
6452;SDS011;3259;51.080;13.712;2023-07-31T09:18:54;2.50;;;1.20;;
6452;SDS011;3259;51.080;13.712;2023-07-31T09:21:47;3.55;;;1.48;;
6452;SDS011;3259;51.080;13.712;2023-07-31T09:24:38;3.47;;;1.58;;
6452;SDS011;3259;51.080;13.712;2023-07-31T09:27:27;3.00;;;1.40;;
6452;SDS011;3259;51.080;13.712;2023-07-31T09:30:16;1.15;;;1.00;;
6452;SDS011;3259;51.080;13.712;2023-07-31T09:33:06;1.40;;;0.90;;
6452;SDS011;3259;51.080;13.712;2023-07-31T09:36:12;2.00;;;1.20;;
6452;SDS011;3259;51.080;13.712;2023-07-31T09:39:14;3.13;;;2.03;;
6452;SDS011;3259;51.080;13.712;2023-07-31T09:42:08;2.55;;;0.80;;
6452;SDS011;3259;51.080;13.712;2023-07-31T09:45:01;3.33;;;1.88;;
6452;SDS011;3259;51.080;13.712;2023-07-31T09:47:56;0.68;;;0.68;;
6452;SDS011;3259;51.080;13.712;2023-07-31T09:50:46;3.65;;;1.25;;
6452;SDS011;3259;51.080;13.712;2023-07-31T09:53:35;1.20;;;1.10;;
6452;SDS011;3259;51.080;13.712;2023-07-31T09:56:24;2.08;;;1.08;;
6452;SDS011;3259;51.080;13.712;2023-07-31T09:59:15;6.65;;;1.45;;
6452;SDS011;3259;51.080;13.712;2023-07-31T10:02:10;1.38;;;0.90;;
6452;SDS011;3259;51.080;13.712;2023-07-31T10:05:08;2.55;;;1.27;;
6452;SDS011;3259;51.080;13.712;2023-07-31T10:08:00;2.00;;;1.33;;
6452;SDS011;3259;51.080;13.712;2023-07-31T10:10:49;1.23;;;1.08;;
6452;SDS011;3259;51.080;13.712;2023-07-31T10:13:38;1.90;;;1.20;;
6452;SDS011;3259;51.080;13.712;2023-07-31T10:16:29;1.88;;;1.00;;
6452;SDS011;3259;51.080;13.712;2023-07-31T10:19:18;1.60;;;1.15;;
6452;SDS011;3259;51.080;13.712;2023-07-31T10:22:08;1.77;;;1.20;;
6452;SDS011;3259;51.080;13.712;2023-07-31T10:24:59;1.50;;;1.08;;
6452;SDS011;3259;51.080;13.712;2023-07-31T10:27:48;3.67;;;1.20;;
6452;SDS011;3259;51.080;13.712;2023-07-31T10:30:39;2.15;;;1.00;;
6452;SDS011;3259;51.080;13.712;2023-07-31T10:33:30;2.47;;;1.67;;
6452;SDS011;3259;51.080;13.712;2023-07-31T10:36:19;2.22;;;1.20;;
6452;SDS011;3259;51.080;13.712;2023-07-31T10:39:32;2.95;;;1.40;;
6452;SDS011;3259;51.080;13.712;2023-07-31T10:42:27;1.63;;;1.30;;
6452;SDS011;3259;51.080;13.712;2023-07-31T10:45:24;1.23;;;1.10;;
6452;SDS011;3259;51.080;13.712;2023-07-31T10:48:15;3.60;;;1.45;;
6452;SDS011;3259;51.080;13.712;2023-07-31T10:51:08;2.00;;;1.45;;
6452;SDS011;3259;51.080;13.712;2023-07-31T10:54:10;2.08;;;1.48;;
6452;SDS011;3259;51.080;13.712;2023-07-31T10:56:59;2.58;;;1.55;;
6452;SDS011;3259;51.080;13.712;2023-07-31T10:59:48;2.10;;;1.10;;
6452;SDS011;3259;51.080;13.712;2023-07-31T11:02:38;2.95;;;1.50;;
6452;SDS011;3259;51.080;13.712;2023-07-31T11:08:51;1.45;;;1.02;;
6452;SDS011;3259;51.080;13.712;2023-07-31T11:11:40;1.70;;;1.25;;
6452;SDS011;3259;51.080;13.712;2023-07-31T11:14:29;2.10;;;1.13;;
6452;SDS011;3259;51.080;13.712;2023-07-31T11:17:18;3.78;;;1.17;;
6452;SDS011;3259;51.080;13.712;2023-07-31T11:20:07;0.90;;;0.90;;
6452;SDS011;3259;51.080;13.712;2023-07-31T11:22:58;1.17;;;1.08;;
6452;SDS011;3259;51.080;13.712;2023-07-31T11:25:49;1.95;;;1.23;;
6452;SDS011;3259;51.080;13.712;2023-07-31T11:28:38;1.73;;;1.10;;
6452;SDS011;3259;51.080;13.712;2023-07-31T11:31:29;1.27;;;0.95;;
6452;SDS011;3259;51.080;13.712;2023-07-31T11:34:18;2.00;;;1.30;;
6452;SDS011;3259;51.080;13.712;2023-07-31T11:37:07;2.20;;;0.70;;
6452;SDS011;3259;51.080;13.712;2023-07-31T11:39:59;1.58;;;1.17;;
6452;SDS011;3259;51.080;13.712;2023-07-31T11:42:50;1.38;;;0.90;;
6452;SDS011;3259;51.080;13.712;2023-07-31T11:45:38;4.65;;;1.05;;
6452;SDS011;3259;51.080;13.712;2023-07-31T11:48:28;1.45;;;1.00;;
6452;SDS011;3259;51.080;13.712;2023-07-31T11:51:20;1.05;;;1.05;;
6452;SDS011;3259;51.080;13.712;2023-07-31T11:54:10;2.17;;;1.30;;
6452;SDS011;3259;51.080;13.712;2023-07-31T11:57:00;3.90;;;0.93;;
6452;SDS011;3259;51.080;13.712;2023-07-31T11:59:51;0.93;;;0.93;;
6452;SDS011;3259;51.080;13.712;2023-07-31T12:02:40;3.13;;;1.10;;
6452;SDS011;3259;51.080;13.712;2023-07-31T12:05:30;1.05;;;0.60;;
6452;SDS011;3259;51.080;13.712;2023-07-31T12:08:20;1.75;;;1.17;;
6452;SDS011;3259;51.080;13.712;2023-07-31T12:11:09;1.48;;;1.38;;
6452;SDS011;3259;51.080;13.712;2023-07-31T12:13:58;1.90;;;1.00;;
6452;SDS011;3259;51.080;13.712;2023-07-31T12:16:49;0.85;;;0.85;;
6452;SDS011;3259;51.080;13.712;2023-07-31T12:19:42;1.10;;;1.08;;
6452;SDS011;3259;51.080;13.712;2023-07-31T12:22:31;2.33;;;1.10;;
6452;SDS011;3259;51.080;13.712;2023-07-31T12:25:20;3.55;;;0.80;;
6452;SDS011;3259;51.080;13.712;2023-07-31T12:28:09;1.15;;;1.05;;
6452;SDS011;3259;51.080;13.712;2023-07-31T12:31:01;2.15;;;1.00;;
6452;SDS011;3259;51.080;13.712;2023-07-31T12:33:51;1.60;;;1.00;;
6452;SDS011;3259;51.080;13.712;2023-07-31T12:36:40;1.83;;;0.85;;
6452;SDS011;3259;51.080;13.712;2023-07-31T12:39:30;0.82;;;0.82;;
6452;SDS011;3259;51.080;13.712;2023-07-31T12:42:19;2.92;;;1.15;;
6452;SDS011;3259;51.080;13.712;2023-07-31T12:45:08;3.10;;;1.08;;
6452;SDS011;3259;51.080;13.712;2023-07-31T12:47:57;3.95;;;1.58;;
6452;SDS011;3259;51.080;13.712;2023-07-31T12:50:47;1.55;;;1.10;;
6452;SDS011;3259;51.080;13.712;2023-07-31T12:53:36;6.32;;;1.67;;
6452;SDS011;3259;51.080;13.712;2023-07-31T12:56:25;1.55;;;1.20;;
6452;SDS011;3259;51.080;13.712;2023-07-31T12:59:13;1.10;;;0.77;;
6452;SDS011;3259;51.080;13.712;2023-07-31T13:02:02;1.75;;;1.33;;
6452;SDS011;3259;51.080;13.712;2023-07-31T13:04:53;4.05;;;1.23;;
6452;SDS011;3259;51.080;13.712;2023-07-31T13:07:44;3.10;;;1.10;;
6452;SDS011;3259;51.080;13.712;2023-07-31T13:10:32;2.05;;;1.08;;
6452;SDS011;3259;51.080;13.712;2023-07-31T13:13:24;2.80;;;1.15;;
6452;SDS011;3259;51.080;13.712;2023-07-31T13:16:15;3.15;;;1.05;;
6452;SDS011;3259;51.080;13.712;2023-07-31T13:19:03;2.88;;;1.17;;
6452;SDS011;3259;51.080;13.712;2023-07-31T13:21:52;1.40;;;0.82;;
6452;SDS011;3259;51.080;13.712;2023-07-31T13:24:42;3.05;;;1.23;;
6452;SDS011;3259;51.080;13.712;2023-07-31T13:27:31;1.52;;;1.15;;
6452;SDS011;3259;51.080;13.712;2023-07-31T13:30:20;2.35;;;1.63;;
6452;SDS011;3259;51.080;13.712;2023-07-31T13:33:09;4.65;;;1.30;;
6452;SDS011;3259;51.080;13.712;2023-07-31T13:36:18;0.98;;;0.70;;
6452;SDS011;3259;51.080;13.712;2023-07-31T13:39:06;1.52;;;1.15;;
6452;SDS011;3259;51.080;13.712;2023-07-31T13:41:57;1.63;;;1.30;;
6452;SDS011;3259;51.080;13.712;2023-07-31T13:44:46;2.20;;;1.40;;
6452;SDS011;3259;51.080;13.712;2023-07-31T13:47:35;2.30;;;1.38;;
6452;SDS011;3259;51.080;13.712;2023-07-31T13:50:24;1.75;;;1.08;;
6452;SDS011;3259;51.080;13.712;2023-07-31T13:53:13;2.53;;;1.35;;
6452;SDS011;3259;51.080;13.712;2023-07-31T13:56:01;2.92;;;1.40;;
6452;SDS011;3259;51.080;13.712;2023-07-31T13:58:51;1.60;;;1.15;;
6452;SDS011;3259;51.080;13.712;2023-07-31T14:01:40;6.75;;;1.48;;
6452;SDS011;3259;51.080;13.712;2023-07-31T14:04:29;1.58;;;1.30;;
6452;SDS011;3259;51.080;13.712;2023-07-31T14:07:18;1.80;;;0.90;;
6452;SDS011;3259;51.080;13.712;2023-07-31T14:10:06;2.92;;;1.38;;
6452;SDS011;3259;51.080;13.712;2023-07-31T14:12:56;3.30;;;1.50;;
6452;SDS011;3259;51.080;13.712;2023-07-31T14:15:46;2.28;;;1.45;;
6452;SDS011;3259;51.080;13.712;2023-07-31T14:18:35;1.65;;;1.10;;
6452;SDS011;3259;51.080;13.712;2023-07-31T14:21:24;3.83;;;1.00;;
6452;SDS011;3259;51.080;13.712;2023-07-31T14:24:13;1.30;;;0.80;;
6452;SDS011;3259;51.080;13.712;2023-07-31T14:27:02;2.65;;;1.65;;
6452;SDS011;3259;51.080;13.712;2023-07-31T14:29:51;2.60;;;1.52;;
6452;SDS011;3259;51.080;13.712;2023-07-31T14:32:41;2.85;;;1.50;;
6452;SDS011;3259;51.080;13.712;2023-07-31T14:35:29;3.10;;;1.30;;
6452;SDS011;3259;51.080;13.712;2023-07-31T14:38:18;1.75;;;1.20;;
6452;SDS011;3259;51.080;13.712;2023-07-31T14:41:07;2.58;;;1.17;;
6452;SDS011;3259;51.080;13.712;2023-07-31T14:43:55;1.42;;;1.23;;
6452;SDS011;3259;51.080;13.712;2023-07-31T14:46:44;7.00;;;1.80;;
6452;SDS011;3259;51.080;13.712;2023-07-31T14:49:34;2.47;;;1.38;;
6452;SDS011;3259;51.080;13.712;2023-07-31T14:52:23;3.53;;;1.25;;
6452;SDS011;3259;51.080;13.712;2023-07-31T14:55:12;1.77;;;1.65;;
6452;SDS011;3259;51.080;13.712;2023-07-31T14:58:01;2.70;;;1.38;;
6452;SDS011;3259;51.080;13.712;2023-07-31T15:00:50;4.88;;;1.30;;
6452;SDS011;3259;51.080;13.712;2023-07-31T15:03:39;2.95;;;1.20;;
6452;SDS011;3259;51.080;13.712;2023-07-31T15:06:29;2.63;;;1.58;;
6452;SDS011;3259;51.080;13.712;2023-07-31T15:09:18;1.60;;;1.30;;
6452;SDS011;3259;51.080;13.712;2023-07-31T15:12:07;1.77;;;1.15;;
6452;SDS011;3259;51.080;13.712;2023-07-31T15:14:56;1.92;;;1.20;;
6452;SDS011;3259;51.080;13.712;2023-07-31T15:17:45;2.83;;;1.58;;
6452;SDS011;3259;51.080;13.712;2023-07-31T15:20:33;2.22;;;1.35;;
6452;SDS011;3259;51.080;13.712;2023-07-31T15:23:24;2.38;;;1.08;;
6452;SDS011;3259;51.080;13.712;2023-07-31T15:26:13;4.25;;;1.23;;
6452;SDS011;3259;51.080;13.712;2023-07-31T15:29:05;2.17;;;1.40;;
6452;SDS011;3259;51.080;13.712;2023-07-31T15:31:58;2.45;;;1.25;;
6452;SDS011;3259;51.080;13.712;2023-07-31T15:34:47;3.78;;;1.38;;
6452;SDS011;3259;51.080;13.712;2023-07-31T15:37:35;1.70;;;1.50;;
6452;SDS011;3259;51.080;13.712;2023-07-31T15:40:25;5.65;;;1.30;;
6452;SDS011;3259;51.080;13.712;2023-07-31T15:43:14;2.97;;;2.25;;
6452;SDS011;3259;51.080;13.712;2023-07-31T15:46:03;3.22;;;2.20;;
6452;SDS011;3259;51.080;13.712;2023-07-31T15:48:52;3.75;;;1.90;;
6452;SDS011;3259;51.080;13.712;2023-07-31T15:51:41;3.67;;;2.53;;
6452;SDS011;3259;51.080;13.712;2023-07-31T15:54:29;5.57;;;2.28;;
6452;SDS011;3259;51.080;13.712;2023-07-31T15:57:20;2.45;;;1.65;;
6452;SDS011;3259;51.080;13.712;2023-07-31T16:00:09;4.95;;;1.30;;
6452;SDS011;3259;51.080;13.712;2023-07-31T16:02:58;3.33;;;1.05;;
6452;SDS011;3259;51.080;13.712;2023-07-31T16:05:47;3.40;;;1.45;;
6452;SDS011;3259;51.080;13.712;2023-07-31T16:08:35;1.40;;;1.30;;
6452;SDS011;3259;51.080;13.712;2023-07-31T16:11:28;3.10;;;1.60;;
6452;SDS011;3259;51.080;13.712;2023-07-31T16:14:18;2.30;;;1.60;;
6452;SDS011;3259;51.080;13.712;2023-07-31T16:17:06;1.58;;;1.45;;
6452;SDS011;3259;51.080;13.712;2023-07-31T16:19:55;3.15;;;1.35;;
6452;SDS011;3259;51.080;13.712;2023-07-31T16:22:44;1.90;;;1.30;;
6452;SDS011;3259;51.080;13.712;2023-07-31T16:25:32;2.78;;;1.60;;
6452;SDS011;3259;51.080;13.712;2023-07-31T16:28:21;1.70;;;1.45;;
6452;SDS011;3259;51.080;13.712;2023-07-31T16:31:11;1.80;;;1.27;;
6452;SDS011;3259;51.080;13.712;2023-07-31T16:34:00;1.63;;;1.52;;
6452;SDS011;3259;51.080;13.712;2023-07-31T16:36:49;1.55;;;1.30;;
6452;SDS011;3259;51.080;13.712;2023-07-31T16:39:37;1.40;;;1.20;;
6452;SDS011;3259;51.080;13.712;2023-07-31T16:42:27;2.22;;;1.35;;
6452;SDS011;3259;51.080;13.712;2023-07-31T16:45:16;1.65;;;1.50;;
6452;SDS011;3259;51.080;13.712;2023-07-31T16:48:06;2.70;;;1.58;;
6452;SDS011;3259;51.080;13.712;2023-07-31T16:50:55;2.42;;;1.50;;
6452;SDS011;3259;51.080;13.712;2023-07-31T16:53:44;2.13;;;1.40;;
6452;SDS011;3259;51.080;13.712;2023-07-31T16:56:32;3.72;;;1.75;;
6452;SDS011;3259;51.080;13.712;2023-07-31T16:59:41;2.85;;;1.90;;
6452;SDS011;3259;51.080;13.712;2023-07-31T17:02:29;8.88;;;2.25;;
6452;SDS011;3259;51.080;13.712;2023-07-31T17:05:20;2.08;;;1.63;;
6452;SDS011;3259;51.080;13.712;2023-07-31T17:08:09;5.28;;;2.25;;
6452;SDS011;3259;51.080;13.712;2023-07-31T17:10:58;2.97;;;1.65;;
6452;SDS011;3259;51.080;13.712;2023-07-31T17:13:47;3.58;;;2.00;;
6452;SDS011;3259;51.080;13.712;2023-07-31T17:16:35;2.42;;;1.73;;
6452;SDS011;3259;51.080;13.712;2023-07-31T17:19:25;2.15;;;1.63;;
6452;SDS011;3259;51.080;13.712;2023-07-31T17:22:15;2.33;;;1.70;;
6452;SDS011;3259;51.080;13.712;2023-07-31T17:25:04;4.25;;;1.63;;
6452;SDS011;3259;51.080;13.712;2023-07-31T17:27:52;7.03;;;1.58;;